sensor_id;sensor_type;location;lat;lon;timestamp;P1;durP1;ratioP1;P2;durP2;ratioP2
22904;SDS011;11619;50.140;8.518;2023-02-01T00:02:23;7.35;;;6.18;;
22904;SDS011;11619;50.140;8.518;2023-02-01T00:04:49;9.30;;;6.57;;
22904;SDS011;11619;50.140;8.518;2023-02-01T00:07:16;8.40;;;6.55;;
22904;SDS011;11619;50.140;8.518;2023-02-01T00:09:42;10.52;;;6.90;;
22904;SDS011;11619;50.140;8.518;2023-02-01T00:12:08;8.60;;;6.57;;
22904;SDS011;11619;50.140;8.518;2023-02-01T00:14:35;7.95;;;6.57;;
22904;SDS011;11619;50.140;8.518;2023-02-01T00:17:07;7.93;;;7.07;;
22904;SDS011;11619;50.140;8.518;2023-02-01T00:19:33;8.25;;;7.28;;
22904;SDS011;11619;50.140;8.518;2023-02-01T00:22:00;8.18;;;7.35;;
22904;SDS011;11619;50.140;8.518;2023-02-01T00:24:27;8.32;;;7.45;;
22904;SDS011;11619;50.140;8.518;2023-02-01T00:26:53;9.60;;;7.90;;
22904;SDS011;11619;50.140;8.518;2023-02-01T00:29:20;8.57;;;7.57;;
22904;SDS011;11619;50.140;8.518;2023-02-01T00:31:46;10.15;;;8.07;;
22904;SDS011;11619;50.140;8.518;2023-02-01T00:34:15;8.95;;;7.72;;
22904;SDS011;11619;50.140;8.518;2023-02-01T00:36:42;9.63;;;7.97;;
22904;SDS011;11619;50.140;8.518;2023-02-01T00:39:10;11.75;;;7.40;;
22904;SDS011;11619;50.140;8.518;2023-02-01T00:41:36;9.93;;;7.97;;
22904;SDS011;11619;50.140;8.518;2023-02-01T00:44:03;8.82;;;7.60;;
22904;SDS011;11619;50.140;8.518;2023-02-01T00:46:29;9.95;;;8.38;;
22904;SDS011;11619;50.140;8.518;2023-02-01T00:48:56;8.98;;;8.05;;
22904;SDS011;11619;50.140;8.518;2023-02-01T00:51:24;8.35;;;7.53;;
22904;SDS011;11619;50.140;8.518;2023-02-01T00:53:52;7.82;;;7.03;;
22904;SDS011;11619;50.140;8.518;2023-02-01T00:56:19;7.43;;;6.72;;
22904;SDS011;11619;50.140;8.518;2023-02-01T00:58:46;8.77;;;6.70;;
22904;SDS011;11619;50.140;8.518;2023-02-01T01:01:16;8.43;;;7.47;;
22904;SDS011;11619;50.140;8.518;2023-02-01T01:03:45;9.23;;;6.75;;
22904;SDS011;11619;50.140;8.518;2023-02-01T01:06:17;7.75;;;6.93;;
22904;SDS011;11619;50.140;8.518;2023-02-01T01:08:45;8.40;;;7.13;;
22904;SDS011;11619;50.140;8.518;2023-02-01T01:11:14;8.25;;;7.25;;
22904;SDS011;11619;50.140;8.518;2023-02-01T01:13:48;8.40;;;7.57;;
22904;SDS011;11619;50.140;8.518;2023-02-01T01:16:15;7.90;;;7.10;;
22904;SDS011;11619;50.140;8.518;2023-02-01T01:18:42;7.60;;;6.78;;
22904;SDS011;11619;50.140;8.518;2023-02-01T01:21:09;9.13;;;8.20;;
22904;SDS011;11619;50.140;8.518;2023-02-01T01:23:38;9.05;;;7.22;;
22904;SDS011;11619;50.140;8.518;2023-02-01T01:26:06;7.55;;;6.78;;
22904;SDS011;11619;50.140;8.518;2023-02-01T01:28:34;9.35;;;6.78;;
22904;SDS011;11619;50.140;8.518;2023-02-01T01:31:00;7.47;;;6.78;;
22904;SDS011;11619;50.140;8.518;2023-02-01T01:33:27;8.10;;;7.00;;
22904;SDS011;11619;50.140;8.518;2023-02-01T01:35:53;9.85;;;7.25;;
22904;SDS011;11619;50.140;8.518;2023-02-01T01:38:20;7.97;;;7.18;;
22904;SDS011;11619;50.140;8.518;2023-02-01T01:40:47;8.63;;;6.93;;
22904;SDS011;11619;50.140;8.518;2023-02-01T01:43:16;8.15;;;7.20;;
22904;SDS011;11619;50.140;8.518;2023-02-01T01:45:43;9.13;;;7.65;;
22904;SDS011;11619;50.140;8.518;2023-02-01T01:48:12;8.07;;;7.38;;
22904;SDS011;11619;50.140;8.518;2023-02-01T01:50:46;8.75;;;7.57;;
22904;SDS011;11619;50.140;8.518;2023-02-01T01:53:16;9.57;;;7.32;;
22904;SDS011;11619;50.140;8.518;2023-02-01T01:55:46;10.27;;;7.88;;
22904;SDS011;11619;50.140;8.518;2023-02-01T01:58:15;9.50;;;7.82;;
22904;SDS011;11619;50.140;8.518;2023-02-01T02:00:44;8.95;;;8.05;;
22904;SDS011;11619;50.140;8.518;2023-02-01T02:03:17;9.48;;;8.48;;
22904;SDS011;11619;50.140;8.518;2023-02-01T02:05:47;9.00;;;8.10;;
22904;SDS011;11619;50.140;8.518;2023-02-01T02:08:15;10.70;;;8.18;;
22904;SDS011;11619;50.140;8.518;2023-02-01T02:10:50;10.77;;;8.63;;
22904;SDS011;11619;50.140;8.518;2023-02-01T02:13:38;8.52;;;7.68;;
22904;SDS011;11619;50.140;8.518;2023-02-01T02:27:44;10.88;;;8.77;;
22904;SDS011;11619;50.140;8.518;2023-02-01T02:33:11;8.82;;;7.68;;
22904;SDS011;11619;50.140;8.518;2023-02-01T02:35:59;10.57;;;7.90;;
22904;SDS011;11619;50.140;8.518;2023-02-01T02:38:36;9.75;;;7.40;;
22904;SDS011;11619;50.140;8.518;2023-02-01T02:42:08;8.52;;;7.63;;
22904;SDS011;11619;50.140;8.518;2023-02-01T02:47:42;10.77;;;7.22;;
22904;SDS011;11619;50.140;8.518;2023-02-01T02:50:15;7.57;;;6.65;;
22904;SDS011;11619;50.140;8.518;2023-02-01T02:53:06;7.82;;;7.03;;
22904;SDS011;11619;50.140;8.518;2023-02-01T02:55:55;8.82;;;6.78;;
22904;SDS011;11619;50.140;8.518;2023-02-01T02:58:41;9.27;;;6.65;;
22904;SDS011;11619;50.140;8.518;2023-02-01T03:01:28;7.50;;;6.35;;
22904;SDS011;11619;50.140;8.518;2023-02-01T03:04:13;7.38;;;6.35;;
22904;SDS011;11619;50.140;8.518;2023-02-01T03:06:44;9.90;;;6.05;;
22904;SDS011;11619;50.140;8.518;2023-02-01T03:09:16;7.60;;;5.85;;
22904;SDS011;11619;50.140;8.518;2023-02-01T03:11:47;6.80;;;6.10;;
22904;SDS011;11619;50.140;8.518;2023-02-01T03:14:49;10.32;;;5.82;;
22904;SDS011;11619;50.140;8.518;2023-02-01T03:17:19;7.50;;;5.40;;
22904;SDS011;11619;50.140;8.518;2023-02-01T03:19:48;8.55;;;6.13;;
22904;SDS011;11619;50.140;8.518;2023-02-01T03:22:19;8.30;;;5.43;;
22904;SDS011;11619;50.140;8.518;2023-02-01T03:24:49;7.10;;;5.40;;
22904;SDS011;11619;50.140;8.518;2023-02-01T03:27:19;8.93;;;5.25;;
22904;SDS011;11619;50.140;8.518;2023-02-01T03:34:49;7.43;;;5.43;;
22904;SDS011;11619;50.140;8.518;2023-02-01T03:37:16;12.45;;;5.75;;
22904;SDS011;11619;50.140;8.518;2023-02-01T03:39:52;5.88;;;5.15;;
22904;SDS011;11619;50.140;8.518;2023-02-01T03:42:24;5.20;;;4.65;;
22904;SDS011;11619;50.140;8.518;2023-02-01T03:47:33;9.57;;;5.35;;
22904;SDS011;11619;50.140;8.518;2023-02-01T03:50:20;7.53;;;5.28;;
22904;SDS011;11619;50.140;8.518;2023-02-01T03:55:26;9.65;;;6.07;;
22904;SDS011;11619;50.140;8.518;2023-02-01T03:57:55;6.47;;;5.70;;
22904;SDS011;11619;50.140;8.518;2023-02-01T04:00:24;9.60;;;6.15;;
22904;SDS011;11619;50.140;8.518;2023-02-01T04:02:51;7.38;;;5.70;;
22904;SDS011;11619;50.140;8.518;2023-02-01T04:05:19;7.78;;;5.60;;
22904;SDS011;11619;50.140;8.518;2023-02-01T04:07:46;6.97;;;5.82;;
22904;SDS011;11619;50.140;8.518;2023-02-01T04:10:12;6.53;;;5.65;;
22904;SDS011;11619;50.140;8.518;2023-02-01T04:12:39;9.52;;;6.60;;
22904;SDS011;11619;50.140;8.518;2023-02-01T04:15:06;7.75;;;5.72;;
22904;SDS011;11619;50.140;8.518;2023-02-01T04:17:33;9.02;;;6.45;;
22904;SDS011;11619;50.140;8.518;2023-02-01T04:20:00;7.25;;;6.03;;
22904;SDS011;11619;50.140;8.518;2023-02-01T04:22:26;8.93;;;6.13;;
22904;SDS011;11619;50.140;8.518;2023-02-01T04:24:52;8.48;;;6.57;;
22904;SDS011;11619;50.140;8.518;2023-02-01T04:27:19;8.40;;;5.63;;
22904;SDS011;11619;50.140;8.518;2023-02-01T04:29:45;6.70;;;5.82;;
22904;SDS011;11619;50.140;8.518;2023-02-01T04:32:11;7.18;;;5.63;;
22904;SDS011;11619;50.140;8.518;2023-02-01T04:34:38;6.88;;;5.60;;
22904;SDS011;11619;50.140;8.518;2023-02-01T04:37:04;6.13;;;5.47;;
22904;SDS011;11619;50.140;8.518;2023-02-01T04:39:30;8.00;;;5.22;;
22904;SDS011;11619;50.140;8.518;2023-02-01T04:41:57;7.80;;;5.78;;
22904;SDS011;11619;50.140;8.518;2023-02-01T04:44:23;9.60;;;5.60;;
22904;SDS011;11619;50.140;8.518;2023-02-01T04:46:50;9.93;;;6.35;;
22904;SDS011;11619;50.140;8.518;2023-02-01T04:49:16;11.65;;;5.80;;
22904;SDS011;11619;50.140;8.518;2023-02-01T04:51:43;7.65;;;5.40;;
22904;SDS011;11619;50.140;8.518;2023-02-01T04:54:09;7.45;;;5.65;;
22904;SDS011;11619;50.140;8.518;2023-02-01T04:56:39;8.32;;;5.57;;
22904;SDS011;11619;50.140;8.518;2023-02-01T04:59:05;10.52;;;6.18;;
22904;SDS011;11619;50.140;8.518;2023-02-01T05:01:32;6.72;;;5.53;;
22904;SDS011;11619;50.140;8.518;2023-02-01T05:03:58;9.90;;;6.75;;
22904;SDS011;11619;50.140;8.518;2023-02-01T05:06:25;10.25;;;5.93;;
22904;SDS011;11619;50.140;8.518;2023-02-01T05:08:51;6.93;;;5.45;;
22904;SDS011;11619;50.140;8.518;2023-02-01T05:11:17;9.48;;;5.60;;
22904;SDS011;11619;50.140;8.518;2023-02-01T05:14:02;7.93;;;5.20;;
22904;SDS011;11619;50.140;8.518;2023-02-01T05:16:28;10.05;;;5.85;;
22904;SDS011;11619;50.140;8.518;2023-02-01T05:18:55;8.10;;;5.72;;
22904;SDS011;11619;50.140;8.518;2023-02-01T05:21:21;8.38;;;5.63;;
22904;SDS011;11619;50.140;8.518;2023-02-01T05:23:48;12.93;;;5.90;;
22904;SDS011;11619;50.140;8.518;2023-02-01T05:26:33;10.57;;;5.55;;
22904;SDS011;11619;50.140;8.518;2023-02-01T05:28:59;6.43;;;4.82;;
22904;SDS011;11619;50.140;8.518;2023-02-01T05:31:26;10.63;;;5.25;;
22904;SDS011;11619;50.140;8.518;2023-02-01T05:33:52;8.10;;;4.70;;
22904;SDS011;11619;50.140;8.518;2023-02-01T05:36:19;10.80;;;5.03;;
22904;SDS011;11619;50.140;8.518;2023-02-01T05:38:45;9.27;;;4.63;;
22904;SDS011;11619;50.140;8.518;2023-02-01T05:41:11;10.07;;;4.97;;
22904;SDS011;11619;50.140;8.518;2023-02-01T05:43:38;10.43;;;4.82;;
22904;SDS011;11619;50.140;8.518;2023-02-01T05:46:04;12.20;;;5.65;;
22904;SDS011;11619;50.140;8.518;2023-02-01T05:48:31;10.45;;;5.10;;
22904;SDS011;11619;50.140;8.518;2023-02-01T05:50:57;9.50;;;4.43;;
22904;SDS011;11619;50.140;8.518;2023-02-01T05:53:24;9.48;;;4.30;;
22904;SDS011;11619;50.140;8.518;2023-02-01T05:55:50;11.55;;;5.10;;
22904;SDS011;11619;50.140;8.518;2023-02-01T05:58:17;11.13;;;4.82;;
22904;SDS011;11619;50.140;8.518;2023-02-01T06:00:43;12.73;;;4.55;;
22904;SDS011;11619;50.140;8.518;2023-02-01T06:03:09;9.93;;;4.13;;
22904;SDS011;11619;50.140;8.518;2023-02-01T06:05:36;14.35;;;4.35;;
22904;SDS011;11619;50.140;8.518;2023-02-01T06:08:03;9.93;;;4.80;;
22904;SDS011;11619;50.140;8.518;2023-02-01T06:10:29;11.82;;;4.28;;
22904;SDS011;11619;50.140;8.518;2023-02-01T06:12:56;14.27;;;5.13;;
22904;SDS011;11619;50.140;8.518;2023-02-01T06:15:22;12.18;;;4.32;;
22904;SDS011;11619;50.140;8.518;2023-02-01T06:17:48;11.68;;;4.97;;
22904;SDS011;11619;50.140;8.518;2023-02-01T06:20:15;12.25;;;3.90;;
22904;SDS011;11619;50.140;8.518;2023-02-01T06:22:42;8.50;;;4.22;;
22904;SDS011;11619;50.140;8.518;2023-02-01T06:25:09;13.20;;;4.70;;
22904;SDS011;11619;50.140;8.518;2023-02-01T06:27:36;10.80;;;4.32;;
22904;SDS011;11619;50.140;8.518;2023-02-01T06:30:03;10.25;;;4.50;;
22904;SDS011;11619;50.140;8.518;2023-02-01T06:32:31;14.82;;;4.60;;
22904;SDS011;11619;50.140;8.518;2023-02-01T06:34:58;15.32;;;5.18;;
22904;SDS011;11619;50.140;8.518;2023-02-01T06:37:26;13.93;;;4.43;;
22904;SDS011;11619;50.140;8.518;2023-02-01T06:39:55;16.98;;;4.55;;
22904;SDS011;11619;50.140;8.518;2023-02-01T06:42:21;14.15;;;4.15;;
22904;SDS011;11619;50.140;8.518;2023-02-01T06:44:50;12.88;;;4.75;;
22904;SDS011;11619;50.140;8.518;2023-02-01T06:47:17;12.52;;;4.75;;
22904;SDS011;11619;50.140;8.518;2023-02-01T06:49:43;12.25;;;4.60;;
22904;SDS011;11619;50.140;8.518;2023-02-01T06:52:10;14.20;;;5.22;;
22904;SDS011;11619;50.140;8.518;2023-02-01T06:54:36;10.30;;;5.05;;
22904;SDS011;11619;50.140;8.518;2023-02-01T06:57:03;13.82;;;4.43;;
22904;SDS011;11619;50.140;8.518;2023-02-01T06:59:30;13.20;;;4.50;;
22904;SDS011;11619;50.140;8.518;2023-02-01T07:01:56;11.30;;;4.68;;
22904;SDS011;11619;50.140;8.518;2023-02-01T07:04:22;12.15;;;5.03;;
22904;SDS011;11619;50.140;8.518;2023-02-01T07:06:49;17.75;;;7.55;;
22904;SDS011;11619;50.140;8.518;2023-02-01T07:09:15;14.90;;;6.47;;
22904;SDS011;11619;50.140;8.518;2023-02-01T07:11:43;14.68;;;5.32;;
22904;SDS011;11619;50.140;8.518;2023-02-01T07:14:10;16.50;;;4.60;;
22904;SDS011;11619;50.140;8.518;2023-02-01T07:16:37;17.17;;;4.45;;
22904;SDS011;11619;50.140;8.518;2023-02-01T07:19:03;15.52;;;4.57;;
22904;SDS011;11619;50.140;8.518;2023-02-01T07:21:30;10.82;;;4.50;;
22904;SDS011;11619;50.140;8.518;2023-02-01T07:23:57;13.95;;;4.88;;
22904;SDS011;11619;50.140;8.518;2023-02-01T07:26:25;14.65;;;5.32;;
22904;SDS011;11619;50.140;8.518;2023-02-01T07:28:51;18.15;;;4.85;;
22904;SDS011;11619;50.140;8.518;2023-02-01T07:31:19;11.25;;;4.25;;
22904;SDS011;11619;50.140;8.518;2023-02-01T07:33:48;13.82;;;4.65;;
22904;SDS011;11619;50.140;8.518;2023-02-01T07:36:17;13.57;;;4.93;;
22904;SDS011;11619;50.140;8.518;2023-02-01T07:38:44;9.63;;;4.18;;
22904;SDS011;11619;50.140;8.518;2023-02-01T07:41:13;10.82;;;3.80;;
22904;SDS011;11619;50.140;8.518;2023-02-01T07:43:39;11.88;;;3.92;;
22904;SDS011;11619;50.140;8.518;2023-02-01T07:46:06;14.68;;;3.88;;
22904;SDS011;11619;50.140;8.518;2023-02-01T07:48:33;15.30;;;3.97;;
22904;SDS011;11619;50.140;8.518;2023-02-01T07:51:01;10.90;;;3.55;;
22904;SDS011;11619;50.140;8.518;2023-02-01T07:53:32;17.83;;;4.05;;
22904;SDS011;11619;50.140;8.518;2023-02-01T07:55:59;16.33;;;4.40;;
22904;SDS011;11619;50.140;8.518;2023-02-01T07:58:26;21.45;;;3.85;;
22904;SDS011;11619;50.140;8.518;2023-02-01T08:00:53;15.38;;;3.80;;
22904;SDS011;11619;50.140;8.518;2023-02-01T08:03:39;12.18;;;3.92;;
22904;SDS011;11619;50.140;8.518;2023-02-01T08:06:06;10.38;;;4.05;;
22904;SDS011;11619;50.140;8.518;2023-02-01T08:08:33;18.08;;;4.40;;
22904;SDS011;11619;50.140;8.518;2023-02-01T08:11:00;15.85;;;4.47;;
22904;SDS011;11619;50.140;8.518;2023-02-01T08:13:27;9.90;;;4.93;;
22904;SDS011;11619;50.140;8.518;2023-02-01T08:15:57;17.52;;;5.28;;
22904;SDS011;11619;50.140;8.518;2023-02-01T08:18:25;13.18;;;4.00;;
22904;SDS011;11619;50.140;8.518;2023-02-01T08:20:51;11.77;;;3.60;;
22904;SDS011;11619;50.140;8.518;2023-02-01T08:23:18;18.90;;;6.45;;
22904;SDS011;11619;50.140;8.518;2023-02-01T08:25:45;20.13;;;4.43;;
22904;SDS011;11619;50.140;8.518;2023-02-01T08:28:12;19.08;;;4.10;;
22904;SDS011;11619;50.140;8.518;2023-02-01T08:30:39;11.63;;;3.97;;
22904;SDS011;11619;50.140;8.518;2023-02-01T08:33:06;15.23;;;3.92;;
22904;SDS011;11619;50.140;8.518;2023-02-01T08:35:35;13.10;;;4.18;;
22904;SDS011;11619;50.140;8.518;2023-02-01T08:38:09;12.40;;;4.00;;
22904;SDS011;11619;50.140;8.518;2023-02-01T08:40:35;12.95;;;3.80;;
22904;SDS011;11619;50.140;8.518;2023-02-01T08:43:01;12.60;;;3.83;;
22904;SDS011;11619;50.140;8.518;2023-02-01T08:45:28;18.48;;;3.70;;
22904;SDS011;11619;50.140;8.518;2023-02-01T08:47:56;11.73;;;3.60;;
22904;SDS011;11619;50.140;8.518;2023-02-01T08:50:23;12.23;;;3.53;;
22904;SDS011;11619;50.140;8.518;2023-02-01T08:52:51;11.82;;;3.42;;
22904;SDS011;11619;50.140;8.518;2023-02-01T08:55:18;11.55;;;3.33;;
22904;SDS011;11619;50.140;8.518;2023-02-01T08:57:45;12.75;;;3.83;;
22904;SDS011;11619;50.140;8.518;2023-02-01T09:00:12;12.40;;;3.50;;
22904;SDS011;11619;50.140;8.518;2023-02-01T09:02:41;13.48;;;3.88;;
22904;SDS011;11619;50.140;8.518;2023-02-01T09:05:08;12.05;;;3.53;;
22904;SDS011;11619;50.140;8.518;2023-02-01T09:07:34;15.27;;;4.38;;
22904;SDS011;11619;50.140;8.518;2023-02-01T09:10:01;12.65;;;3.33;;
22904;SDS011;11619;50.140;8.518;2023-02-01T09:12:28;9.05;;;2.75;;
22904;SDS011;11619;50.140;8.518;2023-02-01T09:14:55;12.10;;;3.33;;
22904;SDS011;11619;50.140;8.518;2023-02-01T09:17:22;7.28;;;3.20;;
22904;SDS011;11619;50.140;8.518;2023-02-01T09:19:49;12.20;;;3.67;;
22904;SDS011;11619;50.140;8.518;2023-02-01T09:22:16;9.35;;;3.53;;
22904;SDS011;11619;50.140;8.518;2023-02-01T09:24:42;12.05;;;3.53;;
22904;SDS011;11619;50.140;8.518;2023-02-01T09:27:09;12.65;;;3.13;;
22904;SDS011;11619;50.140;8.518;2023-02-01T09:29:35;10.55;;;3.35;;
22904;SDS011;11619;50.140;8.518;2023-02-01T09:32:02;12.68;;;3.55;;
22904;SDS011;11619;50.140;8.518;2023-02-01T09:34:30;12.73;;;2.95;;
22904;SDS011;11619;50.140;8.518;2023-02-01T09:36:56;12.82;;;2.90;;
22904;SDS011;11619;50.140;8.518;2023-02-01T09:39:23;10.65;;;3.25;;
22904;SDS011;11619;50.140;8.518;2023-02-01T09:44:42;11.90;;;3.40;;
22904;SDS011;11619;50.140;8.518;2023-02-01T09:47:19;9.15;;;3.20;;
22904;SDS011;11619;50.140;8.518;2023-02-01T09:49:51;8.38;;;3.58;;
22904;SDS011;11619;50.140;8.518;2023-02-01T09:52:23;7.80;;;3.38;;
22904;SDS011;11619;50.140;8.518;2023-02-01T09:54:54;12.95;;;2.97;;
22904;SDS011;11619;50.140;8.518;2023-02-01T09:57:40;11.45;;;3.35;;
22904;SDS011;11619;50.140;8.518;2023-02-01T10:00:44;11.23;;;3.72;;
22904;SDS011;11619;50.140;8.518;2023-02-01T10:03:03;7.22;;;3.00;;
22904;SDS011;11619;50.140;8.518;2023-02-01T10:05:55;13.85;;;3.50;;
22904;SDS011;11619;50.140;8.518;2023-02-01T10:11:54;12.25;;;3.15;;
22904;SDS011;11619;50.140;8.518;2023-02-01T10:23:17;8.35;;;3.17;;
22904;SDS011;11619;50.140;8.518;2023-02-01T10:25:55;10.38;;;2.60;;
22904;SDS011;11619;50.140;8.518;2023-02-01T10:28:22;13.35;;;3.35;;
22904;SDS011;11619;50.140;8.518;2023-02-01T10:30:52;12.75;;;3.70;;
22904;SDS011;11619;50.140;8.518;2023-02-01T10:33:25;12.13;;;3.30;;
22904;SDS011;11619;50.140;8.518;2023-02-01T10:35:55;12.18;;;3.05;;
22904;SDS011;11619;50.140;8.518;2023-02-01T10:38:29;8.52;;;3.20;;
22904;SDS011;11619;50.140;8.518;2023-02-01T10:41:04;10.55;;;3.50;;
22904;SDS011;11619;50.140;8.518;2023-02-01T10:43:38;11.15;;;3.13;;
22904;SDS011;11619;50.140;8.518;2023-02-01T10:46:06;10.80;;;3.17;;
22904;SDS011;11619;50.140;8.518;2023-02-01T10:48:33;8.32;;;2.85;;
22904;SDS011;11619;50.140;8.518;2023-02-01T10:51:02;7.15;;;2.78;;
22904;SDS011;11619;50.140;8.518;2023-02-01T10:53:50;9.82;;;3.10;;
22904;SDS011;11619;50.140;8.518;2023-02-01T10:56:23;11.43;;;3.22;;
22904;SDS011;11619;50.140;8.518;2023-02-01T10:58:50;10.98;;;3.20;;
22904;SDS011;11619;50.140;8.518;2023-02-01T11:01:19;10.20;;;3.33;;
22904;SDS011;11619;50.140;8.518;2023-02-01T11:03:55;13.18;;;3.35;;
22904;SDS011;11619;50.140;8.518;2023-02-01T11:06:35;13.25;;;3.45;;
22904;SDS011;11619;50.140;8.518;2023-02-01T11:11:33;11.65;;;3.42;;
22904;SDS011;11619;50.140;8.518;2023-02-01T11:16:47;7.72;;;2.58;;
22904;SDS011;11619;50.140;8.518;2023-02-01T11:19:16;8.55;;;2.80;;
22904;SDS011;11619;50.140;8.518;2023-02-01T11:21:43;10.38;;;3.25;;
22904;SDS011;11619;50.140;8.518;2023-02-01T11:24:22;11.25;;;2.83;;
22904;SDS011;11619;50.140;8.518;2023-02-01T11:26:50;11.63;;;3.20;;
22904;SDS011;11619;50.140;8.518;2023-02-01T11:29:19;8.18;;;2.85;;
22904;SDS011;11619;50.140;8.518;2023-02-01T11:31:49;7.95;;;2.33;;
22904;SDS011;11619;50.140;8.518;2023-02-01T11:34:17;12.65;;;3.03;;
22904;SDS011;11619;50.140;8.518;2023-02-01T11:36:46;10.65;;;2.80;;
22904;SDS011;11619;50.140;8.518;2023-02-01T11:39:23;10.10;;;2.75;;
22904;SDS011;11619;50.140;8.518;2023-02-01T11:42:02;10.88;;;2.80;;
22904;SDS011;11619;50.140;8.518;2023-02-01T11:44:35;9.45;;;2.65;;
22904;SDS011;11619;50.140;8.518;2023-02-01T11:47:18;8.20;;;2.40;;
22904;SDS011;11619;50.140;8.518;2023-02-01T11:49:55;12.20;;;3.47;;
22904;SDS011;11619;50.140;8.518;2023-02-01T11:55:10;8.18;;;2.38;;
22904;SDS011;11619;50.140;8.518;2023-02-01T12:06:15;13.88;;;3.10;;
22904;SDS011;11619;50.140;8.518;2023-02-01T12:09:01;7.05;;;2.28;;
22904;SDS011;11619;50.140;8.518;2023-02-01T12:11:57;7.80;;;2.55;;
22904;SDS011;11619;50.140;8.518;2023-02-01T12:14:34;9.10;;;3.40;;
22904;SDS011;11619;50.140;8.518;2023-02-01T12:34:25;9.30;;;2.83;;
22904;SDS011;11619;50.140;8.518;2023-02-01T12:37:18;10.23;;;2.83;;
22904;SDS011;11619;50.140;8.518;2023-02-01T12:40:01;11.15;;;3.10;;
22904;SDS011;11619;50.140;8.518;2023-02-01T12:42:45;8.18;;;3.20;;
22904;SDS011;11619;50.140;8.518;2023-02-01T12:45:30;7.85;;;2.30;;
22904;SDS011;11619;50.140;8.518;2023-02-01T12:48:05;8.18;;;3.03;;
22904;SDS011;11619;50.140;8.518;2023-02-01T12:50:43;6.78;;;2.90;;
22904;SDS011;11619;50.140;8.518;2023-02-01T12:53:22;6.78;;;2.85;;
22904;SDS011;11619;50.140;8.518;2023-02-01T12:55:52;13.68;;;3.38;;
22904;SDS011;11619;50.140;8.518;2023-02-01T12:58:28;9.73;;;2.65;;
22904;SDS011;11619;50.140;8.518;2023-02-01T13:01:12;8.82;;;2.83;;
22904;SDS011;11619;50.140;8.518;2023-02-01T13:06:35;12.38;;;2.88;;
22904;SDS011;11619;50.140;8.518;2023-02-01T13:09:09;9.65;;;2.75;;
22904;SDS011;11619;50.140;8.518;2023-02-01T13:11:45;11.27;;;2.80;;
22904;SDS011;11619;50.140;8.518;2023-02-01T13:22:34;12.88;;;2.80;;
22904;SDS011;11619;50.140;8.518;2023-02-01T13:25:10;10.70;;;2.78;;
22904;SDS011;11619;50.140;8.518;2023-02-01T13:27:39;10.75;;;2.65;;
22904;SDS011;11619;50.140;8.518;2023-02-01T13:30:17;13.23;;;3.15;;
22904;SDS011;11619;50.140;8.518;2023-02-01T13:39:47;11.98;;;2.67;;
22904;SDS011;11619;50.140;8.518;2023-02-01T13:42:13;9.77;;;2.60;;
22904;SDS011;11619;50.140;8.518;2023-02-01T13:47:24;9.95;;;2.47;;
22904;SDS011;11619;50.140;8.518;2023-02-01T13:49:53;8.90;;;2.97;;
22904;SDS011;11619;50.140;8.518;2023-02-01T13:52:28;11.20;;;2.67;;
22904;SDS011;11619;50.140;8.518;2023-02-01T13:55:15;9.10;;;2.80;;
22904;SDS011;11619;50.140;8.518;2023-02-01T13:57:50;7.65;;;2.85;;
22904;SDS011;11619;50.140;8.518;2023-02-01T14:13:27;17.80;;;3.20;;
22904;SDS011;11619;50.140;8.518;2023-02-01T14:21:12;9.18;;;2.70;;
22904;SDS011;11619;50.140;8.518;2023-02-01T14:24:00;10.15;;;3.10;;
22904;SDS011;11619;50.140;8.518;2023-02-01T14:29:17;14.55;;;3.20;;
22904;SDS011;11619;50.140;8.518;2023-02-01T14:32:18;7.40;;;2.10;;
22904;SDS011;11619;50.140;8.518;2023-02-01T14:45:45;7.75;;;2.53;;
22904;SDS011;11619;50.140;8.518;2023-02-01T14:47:49;12.85;;;3.05;;
22904;SDS011;11619;50.140;8.518;2023-02-01T14:58:25;11.40;;;2.45;;
22904;SDS011;11619;50.140;8.518;2023-02-01T15:01:21;10.68;;;3.38;;
22904;SDS011;11619;50.140;8.518;2023-02-01T15:08:58;8.70;;;2.88;;
22904;SDS011;11619;50.140;8.518;2023-02-01T15:11:28;9.25;;;2.35;;
22904;SDS011;11619;50.140;8.518;2023-02-01T15:13:54;12.07;;;2.63;;
22904;SDS011;11619;50.140;8.518;2023-02-01T15:16:23;12.05;;;2.55;;
22904;SDS011;11619;50.140;8.518;2023-02-01T15:19:06;9.40;;;3.03;;
22904;SDS011;11619;50.140;8.518;2023-02-01T15:21:42;8.63;;;2.80;;
22904;SDS011;11619;50.140;8.518;2023-02-01T15:24:12;9.95;;;2.70;;
22904;SDS011;11619;50.140;8.518;2023-02-01T15:26:47;10.70;;;3.35;;
22904;SDS011;11619;50.140;8.518;2023-02-01T15:29:14;6.80;;;2.10;;
22904;SDS011;11619;50.140;8.518;2023-02-01T15:31:41;10.57;;;2.55;;
22904;SDS011;11619;50.140;8.518;2023-02-01T15:34:10;9.07;;;2.67;;
22904;SDS011;11619;50.140;8.518;2023-02-01T15:36:37;10.40;;;2.75;;
22904;SDS011;11619;50.140;8.518;2023-02-01T15:41:49;8.15;;;2.03;;
22904;SDS011;11619;50.140;8.518;2023-02-01T15:44:40;6.65;;;2.67;;
22904;SDS011;11619;50.140;8.518;2023-02-01T15:47:16;7.22;;;2.63;;
22904;SDS011;11619;50.140;8.518;2023-02-01T15:49:44;15.35;;;3.33;;
22904;SDS011;11619;50.140;8.518;2023-02-01T15:52:21;9.07;;;2.70;;
22904;SDS011;11619;50.140;8.518;2023-02-01T15:54:51;9.77;;;2.55;;
22904;SDS011;11619;50.140;8.518;2023-02-01T15:57:20;5.65;;;2.40;;
22904;SDS011;11619;50.140;8.518;2023-02-01T16:00:05;13.10;;;3.28;;
22904;SDS011;11619;50.140;8.518;2023-02-01T16:02:34;9.02;;;3.10;;
22904;SDS011;11619;50.140;8.518;2023-02-01T16:05:05;11.00;;;2.60;;
22904;SDS011;11619;50.140;8.518;2023-02-01T16:07:55;8.60;;;3.03;;
22904;SDS011;11619;50.140;8.518;2023-02-01T16:10:25;7.57;;;2.30;;
22904;SDS011;11619;50.140;8.518;2023-02-01T16:12:53;10.52;;;2.70;;
22904;SDS011;11619;50.140;8.518;2023-02-01T16:15:24;9.38;;;2.78;;
22904;SDS011;11619;50.140;8.518;2023-02-01T16:17:51;15.52;;;3.58;;
22904;SDS011;11619;50.140;8.518;2023-02-01T16:20:17;10.48;;;2.40;;
22904;SDS011;11619;50.140;8.518;2023-02-01T16:22:44;14.18;;;3.05;;
22904;SDS011;11619;50.140;8.518;2023-02-01T16:25:10;8.65;;;2.80;;
22904;SDS011;11619;50.140;8.518;2023-02-01T16:27:37;12.15;;;3.17;;
22904;SDS011;11619;50.140;8.518;2023-02-01T16:30:03;8.23;;;2.20;;
22904;SDS011;11619;50.140;8.518;2023-02-01T16:32:30;10.90;;;2.83;;
22904;SDS011;11619;50.140;8.518;2023-02-01T16:34:56;11.07;;;2.50;;
22904;SDS011;11619;50.140;8.518;2023-02-01T16:37:24;8.20;;;2.45;;
22904;SDS011;11619;50.140;8.518;2023-02-01T16:39:51;10.45;;;2.42;;
22904;SDS011;11619;50.140;8.518;2023-02-01T16:42:17;8.70;;;2.58;;
22904;SDS011;11619;50.140;8.518;2023-02-01T16:44:44;10.98;;;2.72;;
22904;SDS011;11619;50.140;8.518;2023-02-01T16:49:48;8.95;;;2.70;;
22904;SDS011;11619;50.140;8.518;2023-02-01T16:52:19;9.65;;;2.75;;
22904;SDS011;11619;50.140;8.518;2023-02-01T16:54:47;11.15;;;3.17;;
22904;SDS011;11619;50.140;8.518;2023-02-01T16:57:15;8.98;;;2.47;;
22904;SDS011;11619;50.140;8.518;2023-02-01T16:59:42;11.38;;;3.28;;
22904;SDS011;11619;50.140;8.518;2023-02-01T17:02:15;9.85;;;2.83;;
22904;SDS011;11619;50.140;8.518;2023-02-01T17:04:42;7.93;;;2.53;;
22904;SDS011;11619;50.140;8.518;2023-02-01T17:07:11;9.75;;;2.50;;
22904;SDS011;11619;50.140;8.518;2023-02-01T17:09:39;7.95;;;2.38;;
22904;SDS011;11619;50.140;8.518;2023-02-01T17:12:05;7.85;;;2.33;;
22904;SDS011;11619;50.140;8.518;2023-02-01T17:14:33;7.93;;;2.47;;
22904;SDS011;11619;50.140;8.518;2023-02-01T17:17:03;12.35;;;3.65;;
22904;SDS011;11619;50.140;8.518;2023-02-01T17:19:30;11.35;;;2.67;;
22904;SDS011;11619;50.140;8.518;2023-02-01T17:21:58;9.27;;;2.72;;
22904;SDS011;11619;50.140;8.518;2023-02-01T17:24:26;7.72;;;2.33;;
22904;SDS011;11619;50.140;8.518;2023-02-01T17:27:13;7.65;;;2.50;;
22904;SDS011;11619;50.140;8.518;2023-02-01T17:29:40;12.07;;;2.90;;